createdAt,value
2023-03-19T00:00:46.678Z,100707.91
2023-03-19T00:03:13.758Z,100705.69
2023-03-19T00:05:41.749Z,100704.63
2023-03-19T00:08:08.853Z,100698.41
2023-03-19T00:10:39.742Z,100697.13
2023-03-19T00:13:07.070Z,100701.06
2023-03-19T00:15:34.522Z,100697.66
2023-03-19T00:18:02.109Z,100692.97
2023-03-19T00:20:29.144Z,100706.44
2023-03-19T00:22:56.544Z,100698.22
2023-03-19T00:25:24.132Z,100700.31
2023-03-19T00:27:52.783Z,100702.78
2023-03-19T00:30:20.171Z,100703.09
2023-03-19T00:32:48.190Z,100695.22
2023-03-19T00:35:15.936Z,100704.28
2023-03-19T00:37:43.086Z,100698.50
2023-03-19T00:40:11.661Z,100698.69
2023-03-19T00:42:38.719Z,100693.13
2023-03-19T00:45:06.958Z,100696.19
2023-03-19T00:47:34.238Z,100692.06
2023-03-19T00:50:01.989Z,100693.78
2023-03-19T00:52:29.087Z,100705.69
2023-03-19T00:54:56.175Z,100702.72
2023-03-19T00:57:23.569Z,100704.06
2023-03-19T00:59:50.933Z,100695.06
2023-03-19T01:02:18.066Z,100695.66
2023-03-19T01:04:47.459Z,100697.28
2023-03-19T01:07:14.706Z,100697.22
2023-03-19T01:09:41.991Z,100701.16
2023-03-19T01:12:09.458Z,100708.06
2023-03-19T01:14:36.501Z,100697.56
2023-03-19T01:17:03.567Z,100705.50
2023-03-19T01:19:30.900Z,100714.66
2023-03-19T01:21:58.029Z,100711.75
2023-03-19T01:24:25.387Z,100709.56
2023-03-19T01:26:52.414Z,100708.25
2023-03-19T01:29:19.496Z,100710.25
2023-03-19T01:31:46.597Z,100708.16
2023-03-19T01:34:13.735Z,100717.84
2023-03-19T01:36:41.080Z,100705.53
2023-03-19T01:39:08.202Z,100715.91
2023-03-19T01:41:35.336Z,100718.22
2023-03-19T01:44:02.356Z,100710.53
2023-03-19T01:46:34.766Z,100714.63
2023-03-19T01:49:07.625Z,100720.03
2023-03-19T01:51:41.464Z,100722.69
2023-03-19T01:54:14.612Z,100720.38
2023-03-19T01:56:44.984Z,100722.09
2023-03-19T01:59:26.848Z,100718.81
2023-03-19T02:02:09.394Z,100721.09
2023-03-19T02:04:40.810Z,100721.63
2023-03-19T02:07:09.573Z,100717.50
2023-03-19T02:09:37.211Z,100719.38
2023-03-19T02:12:05.465Z,100715.84
2023-03-19T02:14:32.552Z,100714.19
2023-03-19T02:16:59.884Z,100715.03
2023-03-19T02:19:44.622Z,100706.66
2023-03-19T02:22:13.779Z,100704.09
2023-03-19T02:25:17.150Z,100709.28
2023-03-19T02:27:44.531Z,100706.69
2023-03-19T02:30:37.791Z,100698.00
2023-03-19T02:33:05.276Z,100705.91
2023-03-19T02:35:35.202Z,100708.78
2023-03-19T02:38:05.164Z,100704.91
2023-03-19T02:40:45.253Z,100708.69
2023-03-19T02:43:12.386Z,100711.06
2023-03-19T02:45:40.482Z,100703.91
2023-03-19T02:48:07.540Z,100702.63
2023-03-19T02:50:34.830Z,100708.56
2023-03-19T02:53:02.074Z,100702.69
2023-03-19T02:55:29.155Z,100705.41
2023-03-19T02:57:56.323Z,100700.56
2023-03-19T03:00:23.449Z,100704.72
2023-03-19T03:02:50.778Z,100706.09
2023-03-19T03:05:18.448Z,100699.09
2023-03-19T03:07:45.522Z,100702.88
2023-03-19T03:10:12.931Z,100693.44
2023-03-19T03:12:40.085Z,100700.38
2023-03-19T03:15:08.888Z,100690.53
2023-03-19T03:17:40.794Z,100698.03
2023-03-19T03:20:11.423Z,100700.41
2023-03-19T03:22:39.913Z,100696.56
2023-03-19T03:25:07.584Z,100687.91
2023-03-19T03:27:34.823Z,100687.72
2023-03-19T03:30:01.933Z,100699.06
2023-03-19T03:32:29.050Z,100693.44
2023-03-19T03:34:56.098Z,100697.94
2023-03-19T03:37:23.160Z,100694.38
2023-03-19T03:39:50.930Z,100697.94
2023-03-19T03:42:18.480Z,100690.84
2023-03-19T03:44:45.583Z,100695.47
2023-03-19T03:47:13.530Z,100697.72
2023-03-19T03:49:40.583Z,100700.31
2023-03-19T03:52:09.005Z,100711.97
2023-03-19T03:54:36.137Z,100730.88
2023-03-19T03:57:03.793Z,100746.84
2023-03-19T03:59:31.074Z,100747.00
2023-03-19T04:01:58.328Z,100742.69
2023-03-19T04:04:25.475Z,100739.78
2023-03-19T04:06:52.568Z,100745.94
2023-03-19T04:09:19.692Z,100747.94
2023-03-19T04:11:47.130Z,100740.00
2023-03-19T04:14:14.390Z,100753.38
2023-03-19T04:16:42.073Z,100740.69
2023-03-19T04:19:09.144Z,100741.91
2023-03-19T04:21:36.208Z,100747.06
2023-03-19T04:24:03.616Z,100737.75
2023-03-19T04:26:30.907Z,100745.78
2023-03-19T04:28:58.804Z,100757.38
2023-03-19T04:31:25.932Z,100766.78
2023-03-19T04:33:53.398Z,100753.38
2023-03-19T04:36:20.959Z,100765.81
2023-03-19T04:38:48.022Z,100762.91
2023-03-19T04:41:16.246Z,100760.59
2023-03-19T04:43:43.318Z,100772.22
2023-03-19T04:46:10.477Z,100767.66
2023-03-19T04:48:37.742Z,100780.56
2023-03-19T04:51:08.445Z,100782.94
2023-03-19T04:53:38.212Z,100776.00
2023-03-19T04:56:07.052Z,100786.19
2023-03-19T04:58:34.400Z,100780.03
2023-03-19T05:01:01.582Z,100777.88
2023-03-19T05:03:28.725Z,100779.75
2023-03-19T05:05:55.899Z,100778.38
2023-03-19T05:08:23.031Z,100781.59
2023-03-19T05:10:50.138Z,100779.25
2023-03-19T05:13:18.068Z,100782.53
2023-03-19T05:15:47.419Z,100778.47
2023-03-19T05:18:14.695Z,100783.13
2023-03-19T05:20:42.600Z,100783.03
2023-03-19T05:23:10.464Z,100784.81
2023-03-19T05:25:37.610Z,100789.00
2023-03-19T05:28:05.557Z,100792.56
2023-03-19T05:30:33.235Z,100798.28
2023-03-19T05:33:02.141Z,100800.53
2023-03-19T05:35:30.631Z,100806.19
2023-03-19T05:37:57.883Z,100799.44
2023-03-19T05:40:26.474Z,100802.59
2023-03-19T05:42:53.628Z,100803.69
2023-03-19T05:45:21.414Z,100794.56
2023-03-19T05:47:50.038Z,100805.50
2023-03-19T05:50:19.356Z,100830.09
2023-03-19T05:52:46.432Z,100845.16
2023-03-19T05:55:13.731Z,100829.16
2023-03-19T05:57:41.168Z,100806.78
2023-03-19T06:00:11.129Z,100791.69
2023-03-19T06:02:38.415Z,100769.31
2023-03-19T06:05:07.124Z,100746.63
2023-03-19T06:07:34.194Z,100728.19
2023-03-19T06:10:01.403Z,100726.31
2023-03-19T06:12:28.785Z,100728.06
2023-03-19T06:14:56.635Z,100725.16
2023-03-19T06:17:23.769Z,100726.72
2023-03-19T06:19:50.835Z,100721.72
2023-03-19T06:22:17.943Z,100722.66
2023-03-19T06:24:44.988Z,100717.53
2023-03-19T06:27:12.270Z,100714.34
2023-03-19T06:29:39.360Z,100711.06
2023-03-19T06:32:06.626Z,100707.84
2023-03-19T06:34:33.735Z,100719.56
2023-03-19T06:37:01.118Z,100725.13
2023-03-19T06:39:28.214Z,100722.25
2023-03-19T06:41:55.781Z,100717.84
2023-03-19T06:44:22.910Z,100723.47
2023-03-19T06:46:49.977Z,100735.06
2023-03-19T06:49:17.217Z,100732.84
2023-03-19T06:51:44.398Z,100742.34
2023-03-19T06:54:11.472Z,100754.66
2023-03-19T06:56:38.561Z,100748.66
2023-03-19T06:59:05.622Z,100754.13
2023-03-19T07:01:32.792Z,100758.75
2023-03-19T07:03:59.905Z,100765.97
2023-03-19T07:06:26.970Z,100778.53
2023-03-19T07:08:54.017Z,100791.59
2023-03-19T07:11:21.133Z,100834.56
2023-03-19T07:13:50.354Z,100876.41
2023-03-19T07:16:17.431Z,100875.63
2023-03-19T07:18:44.496Z,100847.84
2023-03-19T07:21:11.536Z,100835.25
2023-03-19T07:23:38.587Z,100855.75
2023-03-19T07:26:05.792Z,100865.53
2023-03-19T07:28:32.916Z,100900.63
2023-03-19T07:31:00.142Z,100917.28
2023-03-19T07:33:27.225Z,100909.78
2023-03-19T07:35:54.400Z,100884.53
2023-03-19T07:38:22.626Z,100885.63
2023-03-19T07:41:01.480Z,100894.03
2023-03-19T07:43:30.854Z,100906.19
2023-03-19T07:45:58.772Z,100908.69
2023-03-19T07:48:26.070Z,100913.84
2023-03-19T07:50:54.235Z,100909.63
2023-03-19T07:53:21.456Z,100900.19
2023-03-19T07:55:49.036Z,100874.56
2023-03-19T07:58:16.979Z,100853.56
2023-03-19T08:00:45.040Z,100833.91
2023-03-19T08:03:12.418Z,100805.63
2023-03-19T08:05:39.800Z,100787.75
2023-03-19T08:08:07.206Z,100786.41
2023-03-19T08:10:36.491Z,100778.34
2023-03-19T08:13:05.298Z,100780.03
2023-03-19T08:15:32.911Z,100787.47
2023-03-19T08:18:04.858Z,100795.19
2023-03-19T08:20:32.883Z,100805.88
2023-03-19T08:23:00.277Z,100808.63
2023-03-19T08:25:32.323Z,100816.78
2023-03-19T08:28:01.206Z,100827.59
2023-03-19T08:30:28.933Z,100841.72
2023-03-19T08:32:56.143Z,100841.00
2023-03-19T08:35:23.929Z,100846.41
2023-03-19T08:37:51.002Z,100839.59
2023-03-19T08:40:18.120Z,100848.69
2023-03-19T08:42:45.572Z,100855.63
2023-03-19T08:45:15.653Z,100857.22
2023-03-19T08:47:43.994Z,100861.94
2023-03-19T08:50:11.985Z,100867.13
2023-03-19T08:52:39.273Z,100875.44
2023-03-19T08:55:08.390Z,100912.91
2023-03-19T08:57:36.390Z,100931.59
2023-03-19T09:00:06.580Z,100942.72
2023-03-19T09:02:33.829Z,100935.31
2023-03-19T09:05:00.954Z,100938.13
2023-03-19T09:07:28.040Z,100934.59
2023-03-19T09:09:55.470Z,100935.31
2023-03-19T09:12:22.613Z,100935.81
2023-03-19T09:14:49.755Z,100931.28
2023-03-19T09:17:19.297Z,100927.53
2023-03-19T09:19:46.380Z,100924.28
2023-03-19T09:22:15.523Z,100932.34
2023-03-19T09:24:42.865Z,100911.22
2023-03-19T09:27:09.930Z,100903.38
2023-03-19T09:29:37.031Z,100896.69
2023-03-19T09:32:04.347Z,100901.91
2023-03-19T09:34:31.571Z,100889.50
2023-03-19T09:36:58.681Z,100881.16
2023-03-19T09:39:26.929Z,100874.38
2023-03-19T09:42:37.909Z,100867.00
2023-03-19T09:45:12.347Z,100857.59
2023-03-19T09:47:43.357Z,100855.00
2023-03-19T09:50:26.127Z,100851.44
2023-03-19T09:53:19.151Z,100856.41
2023-03-19T09:55:52.492Z,100862.88
2023-03-19T09:58:30.709Z,100869.94
2023-03-19T10:01:00.953Z,100856.66
2023-03-19T10:03:27.814Z,100858.41
2023-03-19T10:06:09.483Z,100855.97
2023-03-19T10:09:33.526Z,100848.50
2023-03-19T10:12:48.425Z,100843.41
2023-03-19T10:15:32.577Z,100841.50
2023-03-19T10:18:24.372Z,100838.72
2023-03-19T10:21:35.302Z,100834.81
2023-03-19T10:24:27.821Z,100829.50
2023-03-19T10:27:10.808Z,100829.56
2023-03-19T10:29:39.006Z,100831.13
2023-03-19T10:32:41.282Z,100837.78
2023-03-19T10:35:27.673Z,100826.16
2023-03-19T10:37:55.713Z,100828.88
2023-03-19T10:40:51.456Z,100822.13
2023-03-19T10:43:25.489Z,100823.44
2023-03-19T10:45:54.082Z,100826.47
2023-03-19T10:48:28.333Z,100832.06
2023-03-19T10:51:05.543Z,100826.00
2023-03-19T10:53:38.831Z,100824.59
2023-03-19T10:56:23.187Z,100827.84
2023-03-19T10:59:30.220Z,100828.78
2023-03-19T11:02:27.861Z,100824.06
2023-03-19T11:05:14.729Z,100827.06
2023-03-19T11:07:41.899Z,100824.41
2023-03-19T11:10:18.763Z,100826.53
2023-03-19T11:13:15.625Z,100818.22
2023-03-19T11:15:42.778Z,100827.16
2023-03-19T11:18:36.829Z,100822.19
2023-03-19T11:21:23.485Z,100822.34
2023-03-19T11:24:03.342Z,100816.97
2023-03-19T11:26:31.280Z,100823.44
2023-03-19T11:29:05.172Z,100820.88
2023-03-19T11:31:54.364Z,100816.94
2023-03-19T11:34:58.974Z,100819.91
2023-03-19T11:38:01.043Z,100820.88
2023-03-19T11:41:09.064Z,100820.03
2023-03-19T11:44:19.121Z,100823.22
2023-03-19T11:47:38.939Z,100822.94
2023-03-19T11:50:22.146Z,100818.25
2023-03-19T11:53:05.175Z,100826.72
2023-03-19T11:55:43.552Z,100825.94
2023-03-19T11:59:09.690Z,100828.63
2023-03-19T12:02:35.210Z,100838.50
2023-03-19T12:05:51.514Z,100837.19
2023-03-19T12:08:45.788Z,100835.97
2023-03-19T12:11:28.181Z,100829.84
2023-03-19T12:14:30.135Z,100841.91
2023-03-19T12:17:48.771Z,100841.50
2023-03-19T12:21:03.479Z,100839.25
2023-03-19T12:24:23.115Z,100838.63
2023-03-19T12:27:10.318Z,100834.97
2023-03-19T12:29:52.258Z,100833.63
2023-03-19T12:32:38.310Z,100834.78
2023-03-19T12:35:26.413Z,100831.97
2023-03-19T12:38:06.017Z,100831.97
2023-03-19T12:40:43.607Z,100825.75
2023-03-19T12:43:55.267Z,100821.72
2023-03-19T12:46:33.196Z,100819.97
2023-03-19T12:49:37.441Z,100822.91
2023-03-19T12:52:39.568Z,100814.94
2023-03-19T12:55:36.336Z,100817.31
2023-03-19T12:58:59.925Z,100818.81
2023-03-19T13:01:38.925Z,100808.72
2023-03-19T13:04:33.222Z,100814.00
2023-03-19T13:07:59.962Z,100804.72
2023-03-19T13:10:31.385Z,100813.44
2023-03-19T13:13:01.275Z,100819.31
2023-03-19T13:15:47.786Z,100823.28
2023-03-19T13:18:23.840Z,100814.19
2023-03-19T13:21:21.565Z,100823.72
2023-03-19T13:24:02.278Z,100818.16
2023-03-19T13:26:29.821Z,100819.31
2023-03-19T13:29:13.798Z,100820.47
2023-03-19T13:31:41.679Z,100816.13
2023-03-19T13:34:28.667Z,100809.75
2023-03-19T13:37:10.582Z,100806.94
2023-03-19T13:39:37.992Z,100815.44
2023-03-19T13:42:42.487Z,100809.88
2023-03-19T13:45:38.358Z,100802.75
2023-03-19T13:48:28.567Z,100802.00
2023-03-19T13:51:29.656Z,100800.25
2023-03-19T13:54:13.574Z,100801.84
2023-03-19T13:57:01.016Z,100799.56
2023-03-19T13:59:43.879Z,100805.38
2023-03-19T14:02:24.060Z,100800.22
2023-03-19T14:05:04.033Z,100799.38
2023-03-19T14:07:41.773Z,100794.31
2023-03-19T14:10:57.212Z,100783.34
2023-03-19T14:13:38.208Z,100788.66
2023-03-19T14:16:26.178Z,100790.44
2023-03-19T14:19:00.756Z,100781.94
2023-03-19T14:22:02.675Z,100777.47
2023-03-19T14:24:55.855Z,100782.56
2023-03-19T14:27:32.869Z,100777.09
2023-03-19T14:30:11.101Z,100782.34
2023-03-19T14:32:42.160Z,100778.97
2023-03-19T14:35:20.510Z,100778.28
2023-03-19T14:37:52.426Z,100780.41
2023-03-19T14:40:50.546Z,100781.84
2023-03-19T14:44:22.798Z,100772.41
2023-03-19T14:47:22.636Z,100781.97
2023-03-19T14:50:57.198Z,100775.41
2023-03-19T14:53:58.632Z,100771.03
2023-03-19T14:56:36.089Z,100779.09
2023-03-19T14:59:06.004Z,100775.09
2023-03-19T15:01:41.097Z,100759.19
2023-03-19T15:04:15.813Z,100766.19
2023-03-19T15:06:58.242Z,100769.34
2023-03-19T15:09:33.527Z,100768.34
2023-03-19T15:12:46.021Z,100764.00
2023-03-19T15:15:50.219Z,100765.19
2023-03-19T15:18:20.599Z,100763.94
2023-03-19T15:20:55.496Z,100764.41
2023-03-19T15:23:29.386Z,100767.75
2023-03-19T15:26:03.901Z,100771.81
2023-03-19T15:28:54.175Z,100764.78
2023-03-19T15:31:37.521Z,100762.59
2023-03-19T15:34:31.221Z,100767.63
2023-03-19T15:37:15.488Z,100766.47
2023-03-19T15:39:54.349Z,100765.31
2023-03-19T15:42:26.193Z,100762.50
2023-03-19T15:45:12.173Z,100767.63
2023-03-19T15:48:08.406Z,100770.06
2023-03-19T15:50:42.179Z,100765.34
2023-03-19T15:53:24.415Z,100769.28
2023-03-19T15:55:55.670Z,100772.81
2023-03-19T15:58:32.465Z,100775.19
2023-03-19T16:01:01.145Z,100768.91
2023-03-19T16:03:50.996Z,100771.59
2023-03-19T16:06:29.346Z,100781.72
2023-03-19T16:09:32.802Z,100774.16
2023-03-19T16:12:01.235Z,100776.72
2023-03-19T16:14:39.680Z,100779.41
2023-03-19T16:17:17.191Z,100784.50
2023-03-19T16:19:50.361Z,100778.84
2023-03-19T16:22:23.722Z,100779.38
2023-03-19T16:24:53.815Z,100788.63
2023-03-19T16:27:34.500Z,100787.75
2023-03-19T16:30:02.446Z,100788.91
2023-03-19T16:32:32.414Z,100800.41
2023-03-19T16:35:20.544Z,100794.56
2023-03-19T16:37:55.007Z,100801.53
2023-03-19T16:40:21.851Z,100798.06
2023-03-19T16:42:56.180Z,100799.38
2023-03-19T16:45:31.060Z,100797.34
2023-03-19T16:48:05.219Z,100789.66
2023-03-19T16:50:43.107Z,100794.72
2023-03-19T16:53:24.284Z,100804.88
2023-03-19T16:55:54.334Z,100802.59
2023-03-19T16:58:36.427Z,100801.00
2023-03-19T17:01:22.234Z,100797.91
2023-03-19T17:03:50.317Z,100799.13
2023-03-19T17:06:19.135Z,100799.28
2023-03-19T17:08:46.248Z,100804.00
2023-03-19T17:11:31.097Z,100805.53
2023-03-19T17:14:00.181Z,100806.16
2023-03-19T17:16:28.369Z,100805.94
2023-03-19T17:18:56.491Z,100811.91
2023-03-19T17:21:33.226Z,100814.94
2023-03-19T17:24:30.169Z,100806.25
2023-03-19T17:27:01.705Z,100807.28
2023-03-19T17:29:30.439Z,100812.81
2023-03-19T17:32:01.815Z,100809.59
2023-03-19T17:34:32.002Z,100822.66
2023-03-19T17:37:04.581Z,100820.13
2023-03-19T17:39:32.737Z,100820.25
2023-03-19T17:41:59.986Z,100824.84
2023-03-19T17:44:27.892Z,100821.69
2023-03-19T17:46:55.794Z,100826.22
2023-03-19T17:49:33.779Z,100824.41
2023-03-19T17:52:01.452Z,100824.16
2023-03-19T17:54:28.837Z,100828.63
2023-03-19T17:56:56.129Z,100825.41
2023-03-19T17:59:23.799Z,100837.06
2023-03-19T18:01:52.000Z,100834.88
2023-03-19T18:04:22.389Z,100838.69
2023-03-19T18:06:55.914Z,100839.88
2023-03-19T18:09:28.469Z,100837.44
2023-03-19T18:11:55.977Z,100839.34
2023-03-19T18:14:23.008Z,100838.66
2023-03-19T18:16:50.605Z,100839.34
2023-03-19T18:19:37.709Z,100843.34
2023-03-19T18:22:17.734Z,100843.38
2023-03-19T18:24:46.059Z,100844.88
2023-03-19T18:27:13.479Z,100843.50
2023-03-19T18:29:40.779Z,100852.22
2023-03-19T18:32:17.644Z,100851.13
2023-03-19T18:34:44.860Z,100855.44
2023-03-19T18:37:18.240Z,100851.81
2023-03-19T18:39:45.539Z,100854.88
2023-03-19T18:42:14.187Z,100847.63
2023-03-19T18:44:41.349Z,100856.34
2023-03-19T18:47:15.781Z,100844.56
2023-03-19T18:49:43.627Z,100849.81
2023-03-19T18:52:17.852Z,100853.97
2023-03-19T18:54:46.586Z,100854.69
2023-03-19T18:57:15.643Z,100858.03
2023-03-19T18:59:43.078Z,100857.78
2023-03-19T19:02:35.012Z,100862.59
2023-03-19T19:05:02.543Z,100864.09
2023-03-19T19:07:29.724Z,100869.75
2023-03-19T19:09:56.868Z,100871.59
2023-03-19T19:12:25.986Z,100867.19
2023-03-19T19:14:53.105Z,100868.59
2023-03-19T19:17:24.472Z,100874.53
2023-03-19T19:19:51.562Z,100873.44
2023-03-19T19:22:19.885Z,100878.31
2023-03-19T19:24:47.656Z,100884.69
2023-03-19T19:27:23.662Z,100886.63
2023-03-19T19:29:51.271Z,100885.97
2023-03-19T19:32:29.356Z,100881.59
2023-03-19T19:34:57.038Z,100884.75
2023-03-19T19:37:24.317Z,100890.47
2023-03-19T19:39:51.864Z,100887.75
2023-03-19T19:42:22.587Z,100894.69
2023-03-19T19:45:03.233Z,100893.66
2023-03-19T19:47:30.435Z,100891.09
2023-03-19T19:49:57.985Z,100890.22
2023-03-19T19:52:25.078Z,100897.59
2023-03-19T19:54:52.141Z,100902.13
2023-03-19T19:57:26.419Z,100896.84
2023-03-19T19:59:55.535Z,100894.47
2023-03-19T20:02:29.105Z,100905.00
2023-03-19T20:04:57.987Z,100897.41
2023-03-19T20:07:25.122Z,100906.00
2023-03-19T20:09:52.254Z,100905.31
2023-03-19T20:12:30.854Z,100900.47
2023-03-19T20:15:00.543Z,100897.81
2023-03-19T20:17:27.930Z,100899.91
2023-03-19T20:19:55.211Z,100893.13
2023-03-19T20:22:22.324Z,100901.44
2023-03-19T20:24:51.382Z,100903.66
2023-03-19T20:27:28.662Z,100897.81
2023-03-19T20:29:56.082Z,100901.16
2023-03-19T20:32:34.280Z,100901.69
2023-03-19T20:35:01.508Z,100898.78
2023-03-19T20:37:29.423Z,100905.84
2023-03-19T20:39:56.738Z,100907.81
2023-03-19T20:42:24.641Z,100900.56
2023-03-19T20:44:58.430Z,100895.88
2023-03-19T20:47:25.925Z,100901.00
2023-03-19T20:49:53.366Z,100908.63
2023-03-19T20:52:21.319Z,100908.91
2023-03-19T20:54:49.334Z,100903.03
2023-03-19T20:57:29.142Z,100909.47
2023-03-19T20:59:57.193Z,100909.00
2023-03-19T21:02:26.218Z,100910.13
2023-03-19T21:04:53.358Z,100906.53
2023-03-19T21:07:34.459Z,100909.72
2023-03-19T21:10:15.664Z,100915.53
2023-03-19T21:12:42.742Z,100912.75
2023-03-19T21:15:16.661Z,100912.75
2023-03-19T21:17:44.295Z,100913.72
2023-03-19T21:20:30.435Z,100913.88
2023-03-19T21:23:17.458Z,100919.84
2023-03-19T21:25:46.186Z,100907.19
2023-03-19T21:28:34.118Z,100912.72
2023-03-19T21:31:02.157Z,100916.34
2023-03-19T21:33:33.142Z,100907.72
2023-03-19T21:36:05.700Z,100910.91
2023-03-19T21:38:33.018Z,100901.75
2023-03-19T21:41:05.219Z,100901.38
2023-03-19T21:43:43.781Z,100895.81
2023-03-19T21:46:24.497Z,100902.75
2023-03-19T21:48:54.471Z,100892.66
2023-03-19T21:51:22.509Z,100890.16
2023-03-19T21:53:49.731Z,100894.97
2023-03-19T21:56:33.314Z,100894.56
2023-03-19T21:59:04.116Z,100894.13
2023-03-19T22:01:31.244Z,100898.06
2023-03-19T22:03:58.550Z,100897.63
2023-03-19T22:06:26.052Z,100900.16
2023-03-19T22:08:54.057Z,100902.50
2023-03-19T22:11:32.496Z,100904.44
2023-03-19T22:14:17.783Z,100901.44
2023-03-19T22:16:47.467Z,100905.28
2023-03-19T22:19:17.770Z,100902.50
2023-03-19T22:21:46.258Z,100903.66
2023-03-19T22:24:13.500Z,100895.06
2023-03-19T22:26:46.751Z,100901.16
2023-03-19T22:29:23.487Z,100898.66
2023-03-19T22:31:53.069Z,100894.34
2023-03-19T22:34:25.511Z,100893.81
2023-03-19T22:36:52.650Z,100901.72
2023-03-19T22:39:19.914Z,100903.09
2023-03-19T22:41:48.786Z,100903.94
2023-03-19T22:44:31.233Z,100900.03
2023-03-19T22:47:01.652Z,100905.03
2023-03-19T22:49:32.381Z,100894.91
2023-03-19T22:51:59.780Z,100898.38
2023-03-19T22:54:26.825Z,100901.25
2023-03-19T22:56:53.944Z,100898.13
2023-03-19T22:59:21.512Z,100892.09
2023-03-19T23:01:49.144Z,100899.56
2023-03-19T23:04:25.100Z,100895.56
2023-03-19T23:06:55.443Z,100895.75
2023-03-19T23:09:35.841Z,100896.16
2023-03-19T23:12:03.991Z,100895.13
2023-03-19T23:14:33.561Z,100889.41
2023-03-19T23:17:10.203Z,100892.56
2023-03-19T23:19:38.360Z,100897.09
2023-03-19T23:22:11.376Z,100894.53
2023-03-19T23:24:38.666Z,100900.63
2023-03-19T23:27:05.864Z,100897.59
2023-03-19T23:29:40.937Z,100897.91
2023-03-19T23:32:11.482Z,100898.25
2023-03-19T23:34:54.028Z,100894.47
2023-03-19T23:37:24.254Z,100896.72
2023-03-19T23:39:51.787Z,100903.00
2023-03-19T23:42:28.756Z,100893.16
2023-03-19T23:45:01.919Z,100890.97
2023-03-19T23:47:30.686Z,100891.16
2023-03-19T23:49:58.059Z,100893.84
2023-03-19T23:52:25.346Z,100894.22
2023-03-19T23:54:52.509Z,100890.88
2023-03-19T23:57:26.349Z,100893.63
2023-03-19T23:59:54.141Z,100891.06
